createdAt,value
2023-03-01T00:01:58.633Z,53.85
2023-03-01T00:04:25.552Z,53.79
2023-03-01T00:06:52.361Z,53.52
2023-03-01T00:09:19.113Z,53.56
2023-03-01T00:11:45.868Z,53.63
2023-03-01T00:14:13.286Z,53.91
2023-03-01T00:16:41.301Z,54.24
2023-03-01T00:19:08.676Z,54.33
2023-03-01T00:21:36.512Z,54.54
2023-03-01T00:24:03.775Z,54.76
2023-03-01T00:26:30.944Z,54.86
2023-03-01T00:28:58.233Z,54.36
2023-03-01T00:31:26.154Z,54.16
2023-03-01T00:34:00.780Z,54.43
2023-03-01T00:36:29.279Z,54.12
2023-03-01T00:38:56.736Z,54.37
2023-03-01T00:41:27.655Z,54.55
2023-03-01T00:43:54.852Z,54.17
2023-03-01T00:46:23.352Z,53.79
2023-03-01T00:48:51.258Z,53.38
2023-03-01T00:51:19.740Z,53.66
2023-03-01T00:53:46.707Z,54.85
2023-03-01T00:56:14.568Z,55.36
2023-03-01T00:58:41.736Z,55.22
2023-03-01T01:01:18.179Z,55.41
2023-03-01T01:03:46.227Z,54.61
2023-03-01T01:06:20.454Z,54.94
2023-03-01T01:08:47.273Z,55.06
2023-03-01T01:11:14.825Z,54.72
2023-03-01T01:13:41.705Z,54.34
2023-03-01T01:16:08.868Z,54.27
2023-03-01T01:18:35.634Z,54.27
2023-03-01T01:21:07.470Z,54.30
2023-03-01T01:23:34.472Z,54.19
2023-03-01T01:26:05.197Z,54.63
2023-03-01T01:28:31.737Z,54.54
2023-03-01T01:30:58.143Z,54.72
2023-03-01T01:33:24.679Z,54.90
2023-03-01T01:35:51.299Z,54.70
2023-03-01T01:38:17.736Z,54.32
2023-03-01T01:40:47.474Z,54.35
2023-03-01T01:43:21.773Z,54.31
2023-03-01T01:45:48.611Z,54.34
2023-03-01T01:48:21.665Z,54.36
2023-03-01T01:50:52.296Z,54.52
2023-03-01T01:53:21.211Z,54.40
2023-03-01T01:55:50.601Z,54.52
2023-03-01T01:58:18.771Z,54.37
2023-03-01T02:00:45.761Z,54.30
2023-03-01T02:03:15.216Z,54.62
2023-03-01T02:05:54.930Z,54.43
2023-03-01T02:08:22.672Z,54.66
2023-03-01T02:10:51.801Z,54.34
2023-03-01T02:13:18.698Z,54.12
2023-03-01T02:15:45.762Z,53.83
2023-03-01T02:18:14.454Z,53.73
2023-03-01T02:20:55.786Z,53.66
2023-03-01T02:23:22.553Z,53.65
2023-03-01T02:26:08.892Z,53.56
2023-03-01T02:28:36.903Z,53.95
2023-03-01T02:31:23.837Z,53.86
2023-03-01T02:33:50.888Z,53.75
2023-03-01T02:36:19.634Z,54.53
2023-03-01T02:38:48.829Z,54.49
2023-03-01T02:41:16.790Z,54.27
2023-03-01T02:43:44.699Z,54.18
2023-03-01T02:46:16.731Z,54.18
2023-03-01T02:48:45.354Z,54.69
2023-03-01T02:51:20.314Z,54.78
2023-03-01T02:53:55.616Z,54.72
2023-03-01T02:56:23.822Z,54.99
2023-03-01T02:58:53.933Z,55.02
2023-03-01T03:01:20.876Z,55.25
2023-03-01T03:03:48.182Z,54.88
2023-03-01T03:06:14.724Z,54.62
2023-03-01T03:08:41.321Z,54.84
2023-03-01T03:11:07.927Z,54.61
2023-03-01T03:13:35.188Z,54.58
2023-03-01T03:16:04.905Z,54.42
2023-03-01T03:18:32.287Z,54.44
2023-03-01T03:20:59.126Z,55.14
2023-03-01T03:23:26.927Z,55.38
2023-03-01T03:25:53.899Z,55.52
2023-03-01T03:28:20.983Z,55.57
2023-03-01T03:30:49.258Z,55.47
2023-03-01T03:33:16.012Z,55.28
2023-03-01T03:35:44.804Z,55.20
2023-03-01T03:38:16.745Z,54.91
2023-03-01T03:40:47.997Z,54.66
2023-03-01T03:43:16.759Z,54.33
2023-03-01T03:45:45.385Z,54.69
2023-03-01T03:48:18.197Z,55.00
2023-03-01T03:50:49.628Z,54.86
2023-03-01T03:53:17.701Z,55.21
2023-03-01T03:55:45.439Z,55.28
2023-03-01T03:58:12.301Z,55.30
2023-03-01T04:00:40.902Z,55.50
2023-03-01T04:03:08.592Z,55.94
2023-03-01T04:05:35.497Z,55.40
2023-03-01T04:08:02.604Z,55.12
2023-03-01T04:10:31.675Z,55.15
2023-03-01T04:12:58.838Z,55.34
2023-03-01T04:15:26.784Z,55.16
2023-03-01T04:17:54.278Z,55.18
2023-03-01T04:20:26.848Z,54.88
2023-03-01T04:22:53.273Z,55.25
2023-03-01T04:25:20.901Z,55.26
2023-03-01T04:27:48.150Z,55.23
2023-03-01T04:30:14.864Z,54.94
2023-03-01T04:32:42.801Z,55.18
2023-03-01T04:35:09.747Z,55.64
2023-03-01T04:37:36.465Z,56.02
2023-03-01T04:40:14.447Z,55.49
2023-03-01T04:42:43.445Z,55.51
2023-03-01T04:45:14.340Z,55.19
2023-03-01T04:47:42.134Z,54.95
2023-03-01T04:50:09.229Z,55.36
2023-03-01T04:52:36.327Z,55.16
2023-03-01T04:55:03.392Z,55.61
2023-03-01T04:57:30.998Z,55.42
2023-03-01T04:59:58.822Z,55.42
2023-03-01T05:02:25.638Z,54.81
2023-03-01T05:04:52.971Z,55.21
2023-03-01T05:07:22.625Z,55.64
2023-03-01T05:09:56.492Z,56.10
2023-03-01T05:12:23.213Z,56.04
2023-03-01T05:14:50.134Z,55.15
2023-03-01T05:17:16.952Z,55.00
2023-03-01T05:19:44.083Z,54.44
2023-03-01T05:22:11.930Z,54.21
2023-03-01T05:24:40.216Z,54.04
2023-03-01T05:27:08.437Z,54.05
2023-03-01T05:29:36.036Z,54.19
2023-03-01T05:32:04.058Z,55.09
2023-03-01T05:34:32.534Z,55.42
2023-03-01T05:36:59.326Z,55.52
2023-03-01T05:39:28.221Z,54.86
2023-03-01T05:41:55.530Z,54.69
2023-03-01T05:44:22.971Z,54.56
2023-03-01T05:46:50.654Z,54.63
2023-03-01T05:49:17.392Z,54.58
2023-03-01T05:51:48.377Z,54.79
2023-03-01T05:54:14.915Z,54.94
2023-03-01T05:56:41.407Z,54.76
2023-03-01T05:59:08.328Z,54.85
2023-03-01T06:01:35.571Z,55.08
2023-03-01T06:04:02.928Z,54.62
2023-03-01T06:06:30.490Z,54.31
2023-03-01T06:08:57.406Z,55.42
2023-03-01T06:11:23.995Z,58.38
2023-03-01T06:13:50.832Z,57.34
2023-03-01T06:16:17.662Z,57.63
2023-03-01T06:18:44.449Z,58.09
2023-03-01T06:21:11.134Z,58.53
2023-03-01T06:23:37.812Z,59.28
2023-03-01T06:26:10.023Z,60.45
2023-03-01T06:28:36.893Z,58.47
2023-03-01T06:31:03.991Z,60.18
2023-03-01T06:33:30.375Z,59.66
2023-03-01T06:35:57.505Z,57.97
2023-03-01T06:38:25.499Z,57.13
2023-03-01T06:40:57.424Z,56.72
2023-03-01T06:43:24.844Z,56.00
2023-03-01T06:45:52.044Z,55.97
2023-03-01T06:48:18.934Z,55.67
2023-03-01T06:50:46.262Z,55.17
2023-03-01T06:53:13.699Z,55.65
2023-03-01T06:55:40.509Z,55.61
2023-03-01T06:58:07.025Z,55.69
2023-03-01T07:00:33.962Z,55.37
2023-03-01T07:03:01.275Z,55.16
2023-03-01T07:05:27.992Z,55.19
2023-03-01T07:07:55.619Z,55.35
2023-03-01T07:10:22.404Z,55.83
2023-03-01T07:12:49.080Z,55.70
2023-03-01T07:15:16.241Z,55.11
2023-03-01T07:17:42.912Z,54.68
2023-03-01T07:20:10.421Z,55.49
2023-03-01T07:22:37.375Z,55.23
2023-03-01T07:25:04.716Z,56.41
2023-03-01T07:27:31.386Z,57.77
2023-03-01T07:29:58.093Z,60.61
2023-03-01T07:32:25.108Z,61.19
2023-03-01T07:34:52.956Z,61.03
2023-03-01T07:37:20.970Z,61.76
2023-03-01T07:39:49.003Z,60.35
2023-03-01T07:42:16.375Z,60.85
2023-03-01T07:44:44.277Z,61.60
2023-03-01T07:47:11.136Z,62.03
2023-03-01T07:49:38.390Z,61.92
2023-03-01T07:52:05.360Z,62.10
2023-03-01T07:54:32.211Z,61.35
2023-03-01T07:56:59.106Z,60.72
2023-03-01T07:59:31.038Z,61.73
2023-03-01T08:01:58.974Z,60.65
2023-03-01T08:04:29.557Z,58.92
2023-03-01T08:06:56.608Z,60.27
2023-03-01T08:09:24.201Z,61.49
2023-03-01T08:11:51.194Z,60.72
2023-03-01T08:14:17.980Z,59.86
2023-03-01T08:16:44.695Z,62.07
2023-03-01T08:19:13.208Z,63.09
2023-03-01T08:21:40.086Z,60.34
2023-03-01T08:24:07.573Z,60.76
2023-03-01T08:26:35.513Z,60.06
2023-03-01T08:29:03.355Z,59.67
2023-03-01T08:31:32.670Z,59.22
2023-03-01T08:34:01.957Z,58.42
2023-03-01T08:36:32.171Z,58.75
2023-03-01T08:39:00.892Z,60.34
2023-03-01T08:41:27.800Z,59.73
2023-03-01T08:44:00.973Z,59.74
2023-03-01T08:46:28.430Z,59.27
2023-03-01T08:48:55.106Z,59.91
2023-03-01T08:51:24.128Z,60.00
2023-03-01T08:53:51.042Z,59.74
2023-03-01T08:56:21.257Z,59.53
2023-03-01T08:58:50.011Z,58.32
2023-03-01T09:01:18.583Z,57.85
2023-03-01T09:03:45.466Z,58.46
2023-03-01T09:06:12.554Z,60.21
2023-03-01T09:08:40.488Z,59.95
2023-03-01T09:11:08.193Z,60.92
2023-03-01T09:13:35.055Z,60.03
2023-03-01T09:16:03.031Z,56.03
2023-03-01T09:18:30.121Z,58.06
2023-03-01T09:21:09.681Z,61.19
2023-03-01T09:23:40.270Z,59.94
2023-03-01T09:26:11.065Z,58.52
2023-03-01T09:28:37.996Z,56.58
2023-03-01T09:31:05.160Z,55.57
2023-03-01T09:33:33.072Z,57.95
2023-03-01T09:35:59.558Z,56.46
2023-03-01T09:38:27.199Z,58.22
2023-03-01T09:40:54.195Z,60.00
2023-03-01T09:43:39.957Z,58.42
2023-03-01T09:46:09.111Z,59.11
2023-03-01T09:48:58.925Z,58.86
2023-03-01T09:51:32.549Z,59.63
2023-03-01T09:54:02.069Z,60.75
2023-03-01T09:56:42.608Z,60.71
2023-03-01T09:59:19.261Z,61.04
2023-03-01T10:01:57.105Z,60.78
2023-03-01T10:04:27.329Z,60.36
2023-03-01T10:07:15.754Z,59.54
2023-03-01T10:09:44.392Z,61.89
2023-03-01T10:12:19.850Z,66.24
2023-03-01T10:15:01.160Z,69.83
2023-03-01T10:17:48.660Z,69.90
2023-03-01T10:20:26.803Z,68.03
2023-03-01T10:22:56.333Z,62.20
2023-03-01T10:25:43.665Z,66.82
2023-03-01T10:28:25.437Z,65.78
2023-03-01T10:30:52.737Z,66.66
2023-03-01T10:33:24.896Z,66.43
2023-03-01T10:35:52.458Z,64.32
2023-03-01T10:38:23.525Z,60.56
2023-03-01T10:40:52.251Z,61.47
2023-03-01T10:43:20.183Z,61.15
2023-03-01T10:45:47.482Z,62.86
2023-03-01T10:48:23.283Z,61.05
2023-03-01T10:50:51.016Z,59.66
2023-03-01T10:53:28.518Z,57.28
2023-03-01T10:56:17.520Z,57.04
2023-03-01T10:59:03.077Z,55.76
2023-03-01T11:01:33.449Z,55.07
2023-03-01T11:04:07.188Z,54.70
2023-03-01T11:06:44.422Z,53.52
2023-03-01T11:09:19.686Z,53.65
2023-03-01T11:11:46.179Z,52.92
2023-03-01T11:14:26.406Z,53.50
2023-03-01T11:17:15.019Z,55.23
2023-03-01T11:19:45.097Z,53.10
2023-03-01T11:22:21.384Z,52.61
2023-03-01T11:24:57.331Z,51.80
2023-03-01T11:27:40.081Z,51.43
2023-03-01T11:30:13.875Z,51.75
2023-03-01T11:32:42.686Z,50.05
2023-03-01T11:35:28.792Z,50.64
2023-03-01T11:38:14.021Z,48.74
2023-03-01T11:40:44.586Z,48.62
2023-03-01T11:43:29.982Z,47.48
2023-03-01T11:45:56.489Z,48.81
2023-03-01T11:48:50.373Z,48.99
2023-03-01T11:51:26.603Z,50.32
2023-03-01T11:54:05.263Z,51.93
2023-03-01T11:56:35.221Z,52.02
2023-03-01T11:59:21.099Z,52.57
2023-03-01T12:01:47.617Z,51.46
2023-03-01T12:04:24.764Z,52.80
2023-03-01T12:07:11.362Z,52.88
2023-03-01T12:09:50.102Z,50.22
2023-03-01T12:12:39.588Z,49.09
2023-03-01T12:15:25.025Z,52.56
2023-03-01T12:17:51.444Z,52.17
2023-03-01T12:20:24.738Z,50.15
2023-03-01T12:23:19.373Z,49.40
2023-03-01T12:25:51.328Z,50.74
2023-03-01T12:28:41.658Z,50.08
2023-03-01T12:31:15.801Z,48.53
2023-03-01T12:33:56.084Z,50.53
2023-03-01T12:36:34.017Z,48.05
2023-03-01T12:39:21.314Z,50.04
2023-03-01T12:42:06.030Z,50.25
2023-03-01T12:44:47.912Z,50.21
2023-03-01T12:47:27.715Z,52.43
2023-03-01T12:50:01.462Z,51.18
2023-03-01T12:52:42.448Z,50.86
2023-03-01T12:55:26.207Z,50.19
2023-03-01T12:58:02.630Z,52.43
2023-03-01T13:00:32.723Z,51.88
2023-03-01T13:03:17.915Z,52.00
2023-03-01T13:06:03.189Z,52.66
2023-03-01T13:08:37.755Z,52.31
2023-03-01T13:11:05.685Z,51.73
2023-03-01T13:13:32.824Z,50.40
2023-03-01T13:16:19.820Z,48.53
2023-03-01T13:18:46.786Z,49.13
2023-03-01T13:21:13.411Z,48.44
2023-03-01T13:23:40.913Z,47.58
2023-03-01T13:26:15.643Z,48.11
2023-03-01T13:28:42.991Z,49.00
2023-03-01T13:31:11.404Z,50.27
2023-03-01T13:33:42.769Z,50.74
2023-03-01T13:36:10.306Z,50.14
2023-03-01T13:38:59.318Z,49.25
2023-03-01T13:41:44.223Z,50.40
2023-03-01T13:44:29.645Z,52.38
2023-03-01T13:46:59.299Z,52.95
2023-03-01T13:49:35.553Z,51.51
2023-03-01T13:52:08.052Z,51.53
2023-03-01T13:54:34.709Z,50.97
2023-03-01T13:57:02.233Z,52.83
2023-03-01T13:59:31.281Z,52.07
2023-03-01T14:01:59.358Z,53.29
2023-03-01T14:04:32.338Z,55.25
2023-03-01T14:07:18.852Z,53.09
2023-03-01T14:09:47.184Z,51.87
2023-03-01T14:12:17.720Z,50.86
2023-03-01T14:14:44.262Z,50.17
2023-03-01T14:17:10.663Z,50.28
2023-03-01T14:19:37.317Z,48.22
2023-03-01T14:22:05.282Z,49.91
2023-03-01T14:24:35.065Z,50.19
2023-03-01T14:27:06.613Z,48.76
2023-03-01T14:29:38.219Z,48.87
2023-03-01T14:32:20.584Z,48.23
2023-03-01T14:34:51.294Z,48.44
2023-03-01T14:37:27.298Z,47.72
2023-03-01T14:39:54.297Z,49.46
2023-03-01T14:42:22.984Z,48.79
2023-03-01T14:44:53.030Z,48.32
2023-03-01T14:47:33.296Z,48.41
2023-03-01T14:50:02.519Z,48.50
2023-03-01T14:52:35.309Z,49.55
2023-03-01T14:55:03.455Z,49.58
2023-03-01T14:57:30.916Z,48.92
2023-03-01T14:59:59.569Z,49.67
2023-03-01T15:02:28.142Z,51.05
2023-03-01T15:05:01.888Z,52.08
2023-03-01T15:07:34.935Z,50.73
2023-03-01T15:10:03.486Z,49.29
2023-03-01T15:12:33.506Z,50.61
2023-03-01T15:15:15.761Z,50.73
2023-03-01T15:17:42.720Z,50.46
2023-03-01T15:20:26.901Z,58.36
2023-03-01T15:22:55.149Z,65.39
2023-03-01T15:25:27.709Z,66.04
2023-03-01T15:27:55.909Z,66.30
2023-03-01T15:30:38.884Z,70.71
2023-03-01T15:33:27.030Z,71.97
2023-03-01T15:35:55.129Z,70.28
2023-03-01T15:38:34.868Z,72.42
2023-03-01T15:41:08.326Z,71.79
2023-03-01T15:43:43.726Z,70.96
2023-03-01T15:46:27.650Z,70.66
2023-03-01T15:48:57.850Z,72.44
2023-03-01T15:52:03.651Z,71.89
2023-03-01T15:54:30.684Z,72.02
2023-03-01T15:57:00.103Z,72.20
2023-03-01T15:59:27.048Z,72.74
2023-03-01T16:01:54.434Z,71.42
2023-03-01T16:04:23.825Z,69.29
2023-03-01T16:06:56.156Z,71.92
2023-03-01T16:09:24.793Z,72.99
2023-03-01T16:11:53.990Z,76.13
2023-03-01T16:14:29.645Z,79.19
2023-03-01T16:16:56.753Z,78.77
2023-03-01T16:19:23.976Z,75.12
2023-03-01T16:21:52.209Z,75.14
2023-03-01T16:24:19.732Z,75.44
2023-03-01T16:26:48.124Z,76.42
2023-03-01T16:29:15.767Z,75.94
2023-03-01T16:31:57.566Z,75.63
2023-03-01T16:34:25.000Z,74.46
2023-03-01T16:36:52.629Z,75.09
2023-03-01T16:39:20.351Z,72.74
2023-03-01T16:41:47.977Z,71.79
2023-03-01T16:44:23.409Z,72.82
2023-03-01T16:46:50.971Z,73.21
2023-03-01T16:49:18.173Z,76.30
2023-03-01T16:51:47.930Z,78.10
2023-03-01T16:54:14.957Z,80.33
2023-03-01T16:56:41.701Z,80.72
2023-03-01T16:59:15.097Z,79.20
2023-03-01T17:01:45.343Z,77.82
2023-03-01T17:04:14.493Z,79.71
2023-03-01T17:06:41.956Z,82.20
2023-03-01T17:09:10.983Z,83.55
2023-03-01T17:11:38.337Z,85.59
2023-03-01T17:14:09.036Z,88.96
2023-03-01T17:16:36.933Z,87.06
2023-03-01T17:19:04.392Z,85.41
2023-03-01T17:21:33.307Z,89.29
2023-03-01T17:24:01.446Z,88.92
2023-03-01T17:26:31.396Z,85.27
2023-03-01T17:28:59.736Z,81.52
2023-03-01T17:31:26.372Z,84.08
2023-03-01T17:33:57.513Z,86.57
2023-03-01T17:36:26.282Z,88.05
2023-03-01T17:38:53.310Z,90.73
2023-03-01T17:41:34.696Z,89.60
2023-03-01T17:44:01.423Z,85.08
2023-03-01T17:46:28.847Z,81.16
2023-03-01T17:48:55.726Z,83.03
2023-03-01T17:51:23.022Z,82.56
2023-03-01T17:53:49.958Z,82.22
2023-03-01T17:56:17.209Z,82.34
2023-03-01T17:58:44.560Z,83.54
2023-03-01T18:01:14.667Z,84.38
2023-03-01T18:03:56.309Z,83.04
2023-03-01T18:06:30.347Z,79.24
2023-03-01T18:08:57.518Z,81.26
2023-03-01T18:11:28.976Z,80.45
2023-03-01T18:13:57.842Z,75.24
2023-03-01T18:16:24.681Z,73.75
2023-03-01T18:18:55.807Z,72.95
2023-03-01T18:21:31.424Z,70.83
2023-03-01T18:23:59.784Z,72.06
2023-03-01T18:26:27.895Z,74.65
2023-03-01T18:28:58.523Z,76.82
2023-03-01T18:31:27.480Z,82.06
2023-03-01T18:33:55.271Z,87.58
2023-03-01T18:36:30.755Z,91.78
2023-03-01T18:38:57.862Z,91.45
2023-03-01T18:41:31.278Z,89.04
2023-03-01T18:43:59.253Z,85.06
2023-03-01T18:46:36.083Z,85.01
2023-03-01T18:49:04.396Z,85.33
2023-03-01T18:51:46.058Z,84.56
2023-03-01T18:54:13.887Z,79.58
2023-03-01T18:56:41.969Z,81.16
2023-03-01T18:59:09.015Z,80.12
2023-03-01T19:01:44.644Z,79.00
2023-03-01T19:04:11.850Z,77.70
2023-03-01T19:06:39.489Z,81.73
2023-03-01T19:09:08.494Z,82.14
2023-03-01T19:11:36.121Z,82.41
2023-03-01T19:14:03.458Z,79.65
2023-03-01T19:16:33.828Z,79.00
2023-03-01T19:19:01.900Z,78.18
2023-03-01T19:21:36.546Z,81.08
2023-03-01T19:24:05.825Z,85.28
2023-03-01T19:26:33.527Z,88.29
2023-03-01T19:29:01.351Z,88.63
2023-03-01T19:31:29.316Z,82.45
2023-03-01T19:34:11.429Z,85.84
2023-03-01T19:36:40.394Z,91.84
2023-03-01T19:39:07.339Z,93.72
2023-03-01T19:41:36.166Z,94.67
2023-03-01T19:44:09.357Z,92.55
2023-03-01T19:46:36.650Z,89.84
2023-03-01T19:49:12.042Z,83.64
2023-03-01T19:51:39.734Z,90.22
2023-03-01T19:54:07.037Z,89.87
2023-03-01T19:56:34.576Z,91.23
2023-03-01T19:59:05.625Z,90.04
2023-03-01T20:01:35.033Z,85.66
2023-03-01T20:04:02.195Z,86.12
2023-03-01T20:06:30.434Z,82.78
2023-03-01T20:09:02.363Z,83.55
2023-03-01T20:11:33.583Z,84.87
2023-03-01T20:14:00.849Z,89.35
2023-03-01T20:16:29.391Z,90.11
2023-03-01T20:18:57.647Z,89.06
2023-03-01T20:21:25.144Z,89.19
2023-03-01T20:23:52.634Z,93.62
2023-03-01T20:26:20.606Z,83.85
2023-03-01T20:28:48.751Z,82.03
2023-03-01T20:31:16.654Z,82.28
2023-03-01T20:33:43.592Z,83.63
2023-03-01T20:36:10.722Z,89.24
2023-03-01T20:38:39.696Z,92.82
2023-03-01T20:41:12.588Z,95.34
2023-03-01T20:43:40.781Z,98.09
2023-03-01T20:46:11.524Z,88.43
2023-03-01T20:48:38.623Z,90.97
2023-03-01T20:51:06.110Z,91.72
2023-03-01T20:53:33.771Z,92.87
2023-03-01T20:56:04.722Z,91.36
2023-03-01T20:58:36.164Z,96.50
2023-03-01T21:01:04.765Z,94.43
2023-03-01T21:03:32.079Z,95.65
2023-03-01T21:06:00.273Z,96.79
2023-03-01T21:08:27.497Z,93.86
2023-03-01T21:10:55.388Z,99.59
2023-03-01T21:13:30.080Z,100.00
2023-03-01T21:16:01.921Z,100.00
2023-03-01T21:18:32.301Z,98.08
2023-03-01T21:21:06.926Z,97.44
2023-03-01T21:23:46.671Z,98.82
2023-03-01T21:26:14.861Z,99.69
2023-03-01T21:28:43.453Z,100.00
2023-03-01T21:31:12.442Z,100.00
2023-03-01T21:33:40.509Z,100.00
2023-03-01T21:36:10.494Z,100.00
2023-03-01T21:38:39.725Z,100.00
2023-03-01T21:41:07.946Z,90.42
2023-03-01T21:43:36.865Z,93.06
2023-03-01T21:46:05.577Z,95.91
2023-03-01T21:48:32.911Z,97.43
2023-03-01T21:51:01.184Z,88.23
2023-03-01T21:53:29.814Z,80.97
2023-03-01T21:55:57.230Z,78.08
2023-03-01T21:58:26.813Z,79.82
2023-03-01T22:00:54.304Z,83.89
2023-03-01T22:03:29.888Z,85.34
2023-03-01T22:05:57.891Z,86.87
2023-03-01T22:08:25.227Z,88.20
2023-03-01T22:10:53.539Z,93.55
2023-03-01T22:13:21.109Z,94.44
2023-03-01T22:16:17.653Z,93.89
2023-03-01T22:18:48.321Z,90.05
2023-03-01T22:21:28.289Z,87.07
2023-03-01T22:23:55.999Z,85.79
2023-03-01T22:26:23.310Z,81.82
2023-03-01T22:28:50.429Z,78.61
2023-03-01T22:31:17.703Z,81.93
2023-03-01T22:33:51.178Z,81.34
2023-03-01T22:36:18.445Z,79.27
2023-03-01T22:39:04.883Z,76.90
2023-03-01T22:41:41.730Z,77.20
2023-03-01T22:44:09.266Z,81.47
2023-03-01T22:46:36.998Z,84.61
2023-03-01T22:49:05.821Z,85.28
2023-03-01T22:51:46.903Z,78.54
2023-03-01T22:54:13.876Z,76.95
2023-03-01T22:56:43.516Z,74.34
2023-03-01T22:59:12.397Z,76.17
2023-03-01T23:01:45.168Z,79.99
2023-03-01T23:04:14.910Z,86.59
2023-03-01T23:06:54.303Z,86.50
2023-03-01T23:09:27.829Z,92.26
2023-03-01T23:12:07.574Z,93.00
2023-03-01T23:14:35.021Z,92.11
2023-03-01T23:17:11.352Z,92.78
2023-03-01T23:19:38.363Z,87.28
2023-03-01T23:22:07.274Z,88.20
2023-03-01T23:24:35.649Z,90.99
2023-03-01T23:27:02.890Z,93.13
2023-03-01T23:29:31.200Z,84.46
2023-03-01T23:32:01.284Z,84.23
2023-03-01T23:34:28.946Z,82.65
2023-03-01T23:36:56.605Z,85.00
2023-03-01T23:39:24.035Z,87.75
2023-03-01T23:41:54.142Z,91.38
2023-03-01T23:44:21.796Z,84.42
2023-03-01T23:46:50.530Z,79.60
2023-03-01T23:49:21.124Z,77.26
2023-03-01T23:51:48.564Z,73.36
2023-03-01T23:54:19.625Z,73.89
2023-03-01T23:56:47.107Z,73.71
2023-03-01T23:59:23.703Z,77.59
